Bookmark and Share
Track history (hours):
 

Elizabeth Ann

More information available from US FCC via Universal Licensing System and Coast Guard Vessel Documentation Center.

Last reported at 2014-Apr-15 07:32 UTC. Time now 2014-Apr-16 16:13 UTC.
Position N 36°56' W 076°20'.

Length 32 m; draft 5 m.

Type: Tug. MMSI: 366773150.

NotesDate/timePositionNaut miles runAvg speedWind from/ knotsBaromVisibWave heightAir tempDewpointWater temp
2014-Apr-15 07:32N 36°56' W 076°20'  
2014-Apr-11 16:07N 36°51' W 076°19'10 0.6
2014-Apr-10 23:33N 37°00' W 076°13'10 9.7
2014-Apr-10 22:33N 36°57' W 076°02'7 1.6
2014-Apr-10 18:32N 36°56' W 075°54'8 7.7
2014-Apr-10 17:33N 36°57' W 076°03'7 7.2
2014-Apr-10 16:33N 36°60' W 076°12'7 7.0
2014-Apr-10 15:33N 36°58' W 076°20'5 2.7
2014-Apr-10 13:33N 36°52' W 076°20'0 0.2
2014-Apr-10 12:14N 36°53' W 076°20'7 6.5
2014-Apr-10 11:06N 36°60' W 076°18'5 8.4
2014-Apr-10 10:33N 37°00' W 076°12'9 8.7
2014-Apr-10 09:34N 36°57' W 076°02'9 8.1
2014-Apr-10 08:31N 36°57' W 075°52'6 1.4
2014-Apr-10 04:31N 36°56' W 075°59'7 7.6
2014-Apr-10 03:33N 36°58' W 076°07'7 6.9
2014-Apr-10 02:33N 37°00' W 076°16'7 6.5
2014-Apr-10 01:28N 36°54' W 076°20'8 1.7
2014-Apr-09 20:33N 37°00' W 076°14'9 9.0
2014-Apr-09 19:33N 36°58' W 076°03'1 0.1
2014-Apr-09 14:33N 36°58' W 076°02'7 7.2
2014-Apr-09 13:33N 36°59' W 076°11'7 6.8
2014-Apr-09 12:33N 36°59' W 076°19'7 6.0
2014-Apr-09 11:21N 36°52' W 076°19'0 0.1
2014-Apr-09 09:33N 36°52' W 076°19'10 0.6
2014-Apr-08 16:33N 37°01' W 076°15'7 7.4
2014-Apr-08 15:33N 36°58' W 076°06'6 0.8
2014-Apr-08 08:30N 36°57' W 075°59'5 5.3
2014-Apr-08 07:33N 36°58' W 076°05'6 5.7
2014-Apr-08 06:33N 36°60' W 076°12'6 5.5
2014-Apr-08 05:33N 36°59' W 076°19'5 0.4
2014-Apr-07 17:33N 37°00' W 076°13'9 9.0
2014-Apr-07 16:33N 36°57' W 076°02'1 0.2
2014-Apr-07 11:33N 36°58' W 076°03'7 6.7
2014-Apr-07 10:33N 36°59' W 076°11'6 6.4
2014-Apr-07 09:34N 36°59' W 076°19'7 1.6
2014-Apr-07 05:28N 36°52' W 076°20'8 2.5
2014-Apr-07 02:10N 37°00' W 076°17'4 7.2
2014-Apr-07 01:33N 36°60' W 076°12'8 7.7
2014-Apr-07 00:33N 36°58' W 076°02'1 0.2
2014-Apr-06 18:33N 36°57' W 076°01'2 0.3
2014-Apr-06 12:33N 36°57' W 075°59'8 7.7
2014-Apr-06 11:33N 36°59' W 076°08'7 7.0
2014-Apr-06 10:34N 37°00' W 076°17'7 6.6
2014-Apr-06 09:31N 36°54' W 076°20'  

Dump ship's entire track history

sailing weather and tide predictions

Elizabeth Ann — WCZ5348 — position and weather